Polo, MO (64671)

2:52 PM CDT on August 31, 2015 (GMT -0500)
Mineral City | | Change Station
CLOSE
Current Station
Personal Weather Station
Location: Rayville, MO
Elevation: 788 ft
Nearby Weather Stations

Elev 788 ft 39.42 °N, 94.05 °W | Updated 1 minute ago

Partly Cloudy
Partly Cloudy
88.5 °F
Feels Like 102 °F
N
0.0
Wind Variable Wind from SSW
Gusts 6.0 mph

Today
High -- | Low -- °F
--% Chance of Precip.
Yesterday
High -- | Low -- °F
Precip. -- in
6:43 AM 7:49 PM
Waning Gibbous, 94% visible
Pressure 29.97 in
Visibility 10.0 miles
Clouds Scattered Clouds 4900 ft
Heat Index 102 °F
Dew Point 78 °F
Humidity 70%
Rainfall 0.00 in
Snow Depth Not available.
UV 6 out of 12
Pollen 9.90 out of 12
Air Quality Not available.
Flu Activity Not available.
METAR KGPH 311955Z AUTO 20009G14KT 10SM SCT049 31/19 A2997 RMK AO2
Pressure 29.97 in
Visibility 10.0 miles
Clouds Scattered Clouds 4900 ft
Heat Index 102 °F
Dew Point 78 °F
Humidity 70%
Rainfall 0.00 in
Snow Depth Not available.
UV 6 out of 12
Pollen 9.90 out of 12
Air Quality Not available.
Flu Activity Not available.
METAR KGPH 311955Z AUTO 20009G14KT 10SM SCT049 31/19 A2997 RMK AO2

10-Day Weather Forecast

×

Almanac

Astronomy

Aug. 31, 2015 Rise Set
Actual Time
Civil Twilight
Nautical Twilight
Astronomical Twilight
Moon
Length of Visible Light
Length of Day
Tomorrow will be .
, % of the Moon is Illuminated

Today's Extremes

State Highs State Lows

Community

WunderPhotos

Upload Photos

1,851,346 photos uploaded!

WunderBlogs® & News

Nearby

Air Quality

  Air Quality AQ Index Pollutant
Not available.

Snow Depth

Station Depth Elevation

Earthquake Activity

City Distance Mag. Time & Date
Minimum magnitude displayed is 2.5.

Coastal Water Temperatures

Place Temperature

Stations

Nearby Weather Stations

Station Location Temp. Windchill Dew Point Humidity Wind Precip. Elev Updated Type